Terminal Aerodrome Forecast
Issued by NWS

Home | Current Version | Previous Version | Text Only | Print | Product List | Glossary On
Versions: 1 2 3 4 5 6 7 8 9 10 11 12 13 14 15 16 17
000
FTUS45 KFGZ 301125
TAFGCN
TAF
KGCN 301125Z 3012/3112 VRB05KT P6SM SCT120 SCT200
     FM301800 24008KT P6SM VCTS SCT080CB BKN110
      TEMPO 3019/3023 VRB15G25KT 2SM TSRA OVC060CB
     FM310400 VRB05KT P6SM VCSH BKN090=

USA.gov is the U.S. government's official web portal to all federal, state and local government web resources and services.